createdAt,value
2023-01-03T00:00:07.911Z,100581.69
2023-01-03T00:01:13.949Z,100597.66
2023-01-03T00:01:54.923Z,100584.63
2023-01-03T00:02:42.027Z,100581.34
2023-01-03T00:03:17.170Z,100581.69
2023-01-03T00:04:06.941Z,100599.28
2023-01-03T00:04:45.850Z,100580.13
2023-01-03T00:05:35.880Z,100601.28
2023-01-03T00:06:24.189Z,100612.56
2023-01-03T00:07:10.896Z,100584.81
2023-01-03T00:07:50.905Z,100609.50
2023-01-03T00:08:30.937Z,100595.44
2023-01-03T00:09:16.093Z,100605.47
2023-01-03T00:09:55.949Z,100622.03
2023-01-03T00:10:35.896Z,100621.84
2023-01-03T00:11:45.539Z,100604.06
2023-01-03T00:12:31.879Z,100607.75
2023-01-03T00:13:12.895Z,100613.38
2023-01-03T00:13:46.939Z,100615.63
2023-01-03T00:14:26.350Z,100628.66
2023-01-03T00:15:06.863Z,100615.88
2023-01-03T00:15:44.953Z,100622.06
2023-01-03T00:16:19.944Z,100627.69
2023-01-03T00:17:04.971Z,100631.38
2023-01-03T00:17:38.950Z,100616.88
2023-01-03T00:18:12.670Z,100620.06
2023-01-03T00:18:53.898Z,100605.84
2023-01-03T00:19:30.034Z,100630.69
2023-01-03T00:20:05.289Z,100627.88
2023-01-03T00:20:44.868Z,100650.22
2023-01-03T00:21:19.930Z,100624.06
2023-01-03T00:21:53.865Z,100616.47
2023-01-03T00:22:38.885Z,100619.19
2023-01-03T00:23:12.949Z,100621.91
2023-01-03T00:23:46.575Z,100650.72
2023-01-03T00:24:27.882Z,100638.34
2023-01-03T00:25:01.967Z,100673.34
2023-01-03T00:25:35.571Z,100658.47
2023-01-03T00:26:18.877Z,100653.56
2023-01-03T00:26:52.969Z,100671.13
2023-01-03T00:27:27.667Z,100651.59
2023-01-03T00:28:08.857Z,100656.25
2023-01-03T00:28:42.967Z,100665.31
2023-01-03T00:29:17.179Z,100678.97
2023-01-03T00:29:57.899Z,100680.44
2023-01-03T00:30:32.188Z,100659.84
2023-01-03T00:31:12.913Z,100665.16
2023-01-03T00:31:52.858Z,100676.78
2023-01-03T00:32:26.950Z,100691.25
2023-01-03T00:33:00.589Z,100676.78
2023-01-03T00:33:43.853Z,100671.72
2023-01-03T00:34:17.914Z,100699.81
2023-01-03T00:34:51.564Z,100668.50
2023-01-03T00:35:31.894Z,100703.41
2023-01-03T00:36:09.963Z,100697.03
2023-01-03T00:36:43.567Z,100691.38
2023-01-03T00:37:23.859Z,100667.50
2023-01-03T00:38:03.916Z,100688.28
2023-01-03T00:38:44.851Z,100679.28
2023-01-03T00:39:25.958Z,100683.22
2023-01-03T00:40:05.855Z,100698.44
2023-01-03T00:40:52.869Z,100683.00
2023-01-03T00:41:26.671Z,100681.25
2023-01-03T00:42:13.857Z,100695.13
2023-01-03T00:43:13.723Z,100668.75
2023-01-03T00:44:02.860Z,100717.78
2023-01-03T00:44:36.667Z,100694.59
2023-01-03T00:45:25.736Z,100676.78
2023-01-03T00:46:07.875Z,100693.22
2023-01-03T00:46:48.934Z,100673.81
2023-01-03T00:47:28.837Z,100692.75
2023-01-03T00:48:08.924Z,100676.78
2023-01-03T00:48:48.871Z,100680.19
2023-01-03T00:49:29.922Z,100682.66
2023-01-03T00:50:09.854Z,100669.09
2023-01-03T00:50:49.903Z,100673.53
2023-01-03T00:51:36.865Z,100698.38
2023-01-03T00:52:16.967Z,100678.81
2023-01-03T00:52:57.831Z,100685.28
2023-01-03T00:53:37.930Z,100696.38
2023-01-03T00:54:19.851Z,100667.91
2023-01-03T00:54:59.905Z,100684.16
2023-01-03T00:55:41.851Z,100661.78
2023-01-03T00:56:25.925Z,100681.97
2023-01-03T00:57:05.854Z,100679.28
2023-01-03T00:57:46.898Z,100676.22
2023-01-03T00:58:26.833Z,100684.75
2023-01-03T00:59:06.933Z,100686.06
2023-01-03T00:59:46.827Z,100687.97
2023-01-03T01:00:26.889Z,100699.28
2023-01-03T01:01:23.968Z,100709.47
2023-01-03T01:02:04.932Z,100719.66
2023-01-03T01:02:46.075Z,100697.44
2023-01-03T01:03:26.119Z,100688.56
2023-01-03T01:04:25.837Z,100704.69
2023-01-03T01:05:05.900Z,100703.31
2023-01-03T01:05:45.841Z,100700.06
2023-01-03T01:06:50.027Z,100717.72
2023-01-03T01:07:30.830Z,100708.75
2023-01-03T01:08:10.850Z,100693.22
2023-01-03T01:08:44.939Z,100707.03
2023-01-03T01:09:39.832Z,100709.16
2023-01-03T01:10:13.939Z,100695.16
2023-01-03T01:11:09.835Z,100697.75
2023-01-03T01:11:43.890Z,100705.00
2023-01-03T01:12:30.819Z,100676.53
2023-01-03T01:13:04.906Z,100714.97
2023-01-03T01:13:45.841Z,100706.28
2023-01-03T01:14:28.900Z,100699.34
2023-01-03T01:15:08.844Z,100706.13
2023-01-03T01:15:48.958Z,100699.25
2023-01-03T01:16:35.817Z,100711.03
2023-01-03T01:17:22.276Z,100697.13
2023-01-03T01:18:04.823Z,100706.06
2023-01-03T01:18:52.834Z,100720.59
2023-01-03T01:19:53.807Z,100707.00
2023-01-03T01:20:47.817Z,100718.19
2023-01-03T01:21:44.845Z,100718.34
2023-01-03T01:22:38.815Z,100710.38
2023-01-03T01:23:32.816Z,100689.72
2023-01-03T01:24:15.900Z,100723.53
2023-01-03T01:24:57.879Z,100725.06
2023-01-03T01:25:40.808Z,100722.25
2023-01-03T01:26:24.883Z,100731.13
2023-01-03T01:27:05.838Z,100730.25
2023-01-03T01:27:45.883Z,100698.56
2023-01-03T01:28:25.824Z,100718.81
2023-01-03T01:29:05.935Z,100698.16
2023-01-03T01:29:46.839Z,100731.97
2023-01-03T01:30:26.870Z,100733.28
2023-01-03T01:31:08.859Z,100706.38
2023-01-03T01:31:49.847Z,100732.19
2023-01-03T01:32:29.798Z,100713.03
2023-01-03T01:33:09.850Z,100713.41
2023-01-03T01:33:50.831Z,100717.84
2023-01-03T01:34:30.889Z,100713.38
2023-01-03T01:35:11.835Z,100714.53
2023-01-03T01:35:51.871Z,100725.72
2023-01-03T01:36:36.796Z,100732.38
2023-01-03T01:37:16.854Z,100725.25
2023-01-03T01:37:56.978Z,100701.53
2023-01-03T01:38:36.911Z,100728.75
2023-01-03T01:39:26.782Z,100724.53
2023-01-03T01:40:08.729Z,100706.69
2023-01-03T01:40:49.829Z,100733.41
2023-01-03T01:41:49.322Z,100716.84
2023-01-03T01:42:47.788Z,100715.31
2023-01-03T01:43:49.521Z,100735.78
2023-01-03T01:44:52.776Z,100744.72
2023-01-03T01:45:32.924Z,100729.25
2023-01-03T01:46:35.886Z,100753.03
2023-01-03T01:47:44.865Z,100742.28
2023-01-03T01:48:24.795Z,100730.97
2023-01-03T01:49:10.857Z,100729.72
2023-01-03T01:49:52.798Z,100728.75
2023-01-03T01:50:44.845Z,100731.16
2023-01-03T01:51:25.791Z,100749.06
2023-01-03T01:52:05.792Z,100733.91
2023-01-03T01:52:42.834Z,100743.38
2023-01-03T01:53:38.792Z,100737.63
2023-01-03T01:54:13.898Z,100754.56
2023-01-03T01:55:02.793Z,100749.75
2023-01-03T01:55:46.990Z,100740.25
2023-01-03T01:56:40.779Z,100746.31
2023-01-03T01:57:23.790Z,100746.69
2023-01-03T01:58:20.771Z,100736.16
2023-01-03T01:59:14.771Z,100740.22
2023-01-03T02:00:08.798Z,100751.38
2023-01-03T02:01:02.783Z,100744.94
2023-01-03T02:01:59.844Z,100745.16
2023-01-03T02:02:47.713Z,100752.84
2023-01-03T02:03:21.911Z,100732.69
2023-01-03T02:04:14.766Z,100745.13
2023-01-03T02:04:48.886Z,100734.34
2023-01-03T02:05:37.759Z,100752.44
2023-01-03T02:06:13.851Z,100765.94
2023-01-03T02:07:01.786Z,100758.66
2023-01-03T02:07:35.887Z,100750.44
2023-01-03T02:08:15.802Z,100754.53
2023-01-03T02:08:55.818Z,100765.06
2023-01-03T02:09:39.792Z,100754.28
2023-01-03T02:10:20.097Z,100763.81
2023-01-03T02:11:25.762Z,100772.03
2023-01-03T02:12:41.838Z,100766.19
2023-01-03T02:13:46.819Z,100773.06
2023-01-03T02:15:17.830Z,100763.34
2023-01-03T02:16:52.763Z,100743.22
2023-01-03T02:18:07.823Z,100758.59
2023-01-03T02:19:02.795Z,100771.63
2023-01-03T02:20:03.901Z,100760.78
2023-01-03T02:21:20.788Z,100767.19
2023-01-03T02:22:26.820Z,100774.44
2023-01-03T02:23:34.734Z,100783.16
2023-01-03T02:24:40.773Z,100758.81
2023-01-03T02:26:11.774Z,100780.94
2023-01-03T02:27:11.759Z,100783.97
2023-01-03T02:28:37.751Z,100772.25
2023-01-03T02:30:12.764Z,100784.81
2023-01-03T02:31:22.802Z,100777.50
2023-01-03T02:32:41.755Z,100791.47
2023-01-03T02:33:53.752Z,100777.94
2023-01-03T02:35:31.773Z,100792.78
2023-01-03T02:36:54.740Z,100768.88
2023-01-03T02:37:59.765Z,100786.47
2023-01-03T02:39:28.748Z,100800.81
2023-01-03T02:40:56.765Z,100792.19
2023-01-03T02:42:40.788Z,100812.00
2023-01-03T02:43:42.726Z,100786.47
2023-01-03T02:44:41.726Z,100793.25
2023-01-03T02:46:12.835Z,100815.94
2023-01-03T02:47:16.741Z,100816.59
2023-01-03T02:48:50.736Z,100820.22
2023-01-03T02:49:51.726Z,100803.63
2023-01-03T02:51:01.720Z,100822.00
2023-01-03T02:51:51.765Z,100801.09
2023-01-03T02:52:29.049Z,100796.56
2023-01-03T02:53:20.762Z,100808.63
2023-01-03T02:53:55.417Z,100817.66
2023-01-03T02:55:10.725Z,100820.34
2023-01-03T02:55:44.911Z,100804.16
2023-01-03T02:56:47.708Z,100817.66
2023-01-03T02:57:33.735Z,100802.59
2023-01-03T02:58:22.813Z,100800.34
2023-01-03T02:59:09.730Z,100804.31
2023-01-03T03:00:17.841Z,100820.06
2023-01-03T03:01:02.731Z,100811.34
2023-01-03T03:01:45.401Z,100817.06
2023-01-03T03:03:01.835Z,100815.53
2023-01-03T03:03:46.790Z,100802.59
2023-01-03T03:04:26.691Z,100809.47
2023-01-03T03:05:12.789Z,100787.91
2023-01-03T03:06:27.723Z,100811.63
2023-01-03T03:07:23.028Z,100846.59
2023-01-03T03:08:09.727Z,100822.16
2023-01-03T03:08:43.767Z,100822.69
2023-01-03T03:09:31.711Z,100834.44
2023-01-03T03:10:24.173Z,100823.88
2023-01-03T03:11:29.722Z,100815.41
2023-01-03T03:12:24.568Z,100792.25
2023-01-03T03:13:30.735Z,100826.31
2023-01-03T03:14:22.520Z,100832.34
2023-01-03T03:15:10.705Z,100838.41
2023-01-03T03:16:10.852Z,100840.13
2023-01-03T03:17:00.692Z,100832.28
2023-01-03T03:17:36.780Z,100830.84
2023-01-03T03:18:48.727Z,100845.53
2023-01-03T03:20:06.303Z,100849.19
2023-01-03T03:21:12.699Z,100828.81
2023-01-03T03:22:06.412Z,100828.69
2023-01-03T03:23:18.692Z,100843.28
2023-01-03T03:24:19.733Z,100835.19
2023-01-03T03:25:18.704Z,100847.47
2023-01-03T03:26:23.696Z,100827.66
2023-01-03T03:27:40.704Z,100849.41
2023-01-03T03:28:43.694Z,100840.59
2023-01-03T03:29:39.709Z,100847.94
2023-01-03T03:30:35.702Z,100837.91
2023-01-03T03:31:57.779Z,100849.97
2023-01-03T03:32:52.702Z,100832.97
2023-01-03T03:33:52.696Z,100838.00
2023-01-03T03:34:47.713Z,100852.56
2023-01-03T03:35:42.676Z,100849.66
2023-01-03T03:37:10.700Z,100858.63
2023-01-03T03:38:08.695Z,100849.84
2023-01-03T03:39:03.678Z,100859.03
2023-01-03T03:40:17.713Z,100845.34
2023-01-03T03:41:38.688Z,100841.78
2023-01-03T03:43:11.674Z,100857.09
2023-01-03T03:44:32.677Z,100852.16
2023-01-03T03:45:43.721Z,100850.72
2023-01-03T03:46:54.527Z,100866.53
2023-01-03T03:48:14.738Z,100872.72
2023-01-03T03:49:37.674Z,100866.97
2023-01-03T03:50:30.751Z,100871.16
2023-01-03T03:51:17.701Z,100857.59
2023-01-03T03:52:02.785Z,100837.97
2023-01-03T03:52:43.677Z,100866.00
2023-01-03T03:53:28.763Z,100877.97
2023-01-03T03:54:14.667Z,100879.59
2023-01-03T03:55:01.725Z,100876.78
2023-01-03T03:55:48.658Z,100848.66
2023-01-03T03:56:39.699Z,100871.41
2023-01-03T03:57:49.675Z,100880.91
2023-01-03T03:58:50.662Z,100868.75
2023-01-03T03:59:45.662Z,100873.41
2023-01-03T04:00:44.661Z,100898.97
2023-01-03T04:01:27.150Z,100886.97
2023-01-03T04:02:10.762Z,100894.44
2023-01-03T04:02:46.954Z,100876.63
2023-01-03T04:03:22.197Z,100874.47
2023-01-03T04:04:06.719Z,100873.63
2023-01-03T04:04:54.723Z,100879.44
2023-01-03T04:05:38.680Z,100889.34
2023-01-03T04:06:49.741Z,100895.72
2023-01-03T04:07:29.726Z,100863.69
2023-01-03T04:08:10.781Z,100893.47
2023-01-03T04:08:50.636Z,100882.25
2023-01-03T04:09:30.763Z,100895.19
2023-01-03T04:10:12.667Z,100896.91
2023-01-03T04:11:05.332Z,100907.25
2023-01-03T04:11:45.661Z,100900.75
2023-01-03T04:12:25.723Z,100879.09
2023-01-03T04:13:05.678Z,100899.28
2023-01-03T04:13:45.744Z,100883.31
2023-01-03T04:14:25.648Z,100888.06
2023-01-03T04:15:07.010Z,100887.41
2023-01-03T04:15:47.655Z,100909.81
2023-01-03T04:16:27.825Z,100871.78
2023-01-03T04:17:07.685Z,100900.44
2023-01-03T04:17:47.722Z,100891.81
2023-01-03T04:18:27.684Z,100895.59
2023-01-03T04:19:07.730Z,100907.47
2023-01-03T04:19:48.655Z,100902.53
2023-01-03T04:20:29.404Z,100914.16
2023-01-03T04:21:11.339Z,100893.00
2023-01-03T04:21:52.691Z,100905.84
2023-01-03T04:22:32.636Z,100915.88
2023-01-03T04:23:12.718Z,100921.25
2023-01-03T04:23:52.662Z,100926.09
2023-01-03T04:24:33.753Z,100914.53
2023-01-03T04:25:14.660Z,100913.59
2023-01-03T04:25:54.697Z,100907.88
2023-01-03T04:26:41.634Z,100919.50
2023-01-03T04:27:15.715Z,100896.88
2023-01-03T04:28:02.625Z,100891.59
2023-01-03T04:28:36.692Z,100917.47
2023-01-03T04:29:17.668Z,100917.78
2023-01-03T04:29:57.708Z,100926.09
2023-01-03T04:30:37.636Z,100917.34
2023-01-03T04:31:17.726Z,100919.31
2023-01-03T04:31:57.689Z,100917.38
2023-01-03T04:32:37.735Z,100903.63
2023-01-03T04:33:18.693Z,100896.09
2023-01-03T04:33:59.680Z,100900.44
2023-01-03T04:34:39.646Z,100907.88
2023-01-03T04:35:19.690Z,100932.47
2023-01-03T04:35:59.639Z,100899.88
2023-01-03T04:36:39.749Z,100914.09
2023-01-03T04:37:19.634Z,100928.81
2023-01-03T04:37:59.694Z,100923.16
2023-01-03T04:38:40.636Z,100909.59
2023-01-03T04:39:20.698Z,100916.50
2023-01-03T04:40:00.672Z,100914.78
2023-01-03T04:40:41.757Z,100905.16
2023-01-03T04:41:22.612Z,100914.97
2023-01-03T04:42:22.657Z,100922.97
2023-01-03T04:43:21.636Z,100914.47
2023-01-03T04:44:01.767Z,100917.78
2023-01-03T04:44:41.643Z,100925.66
2023-01-03T04:45:22.710Z,100938.06
2023-01-03T04:45:56.786Z,100936.88
2023-01-03T04:46:52.554Z,100921.88
2023-01-03T04:47:26.725Z,100913.06
2023-01-03T04:48:14.607Z,100930.53
2023-01-03T04:48:48.748Z,100931.69
2023-01-03T04:49:35.634Z,100911.94
2023-01-03T04:50:10.423Z,100934.81
2023-01-03T04:51:06.634Z,100924.25
2023-01-03T04:51:46.696Z,100946.56
2023-01-03T04:52:26.616Z,100933.38
2023-01-03T04:53:06.669Z,100930.06
2023-01-03T04:53:47.601Z,100906.75
2023-01-03T04:54:27.660Z,100918.94
2023-01-03T04:55:07.644Z,100940.00
2023-01-03T04:55:57.017Z,100934.16
2023-01-03T04:56:40.644Z,100948.63
2023-01-03T04:57:20.671Z,100900.56
2023-01-03T04:58:00.615Z,100935.44
2023-01-03T04:58:40.726Z,100935.75
2023-01-03T04:59:20.624Z,100928.72
2023-01-03T05:00:00.713Z,100925.06
2023-01-03T05:00:40.606Z,100913.72
2023-01-03T05:01:20.761Z,100920.06
2023-01-03T05:02:00.821Z,100935.16
2023-01-03T05:02:40.732Z,100938.53
2023-01-03T05:03:27.603Z,100939.69
2023-01-03T05:04:08.729Z,100919.47
2023-01-03T05:04:48.589Z,100932.75
2023-01-03T05:05:28.661Z,100925.94
2023-01-03T05:06:12.597Z,100932.66
2023-01-03T05:06:52.649Z,100935.66
2023-01-03T05:07:36.648Z,100926.88
2023-01-03T05:08:18.679Z,100941.03
2023-01-03T05:08:58.612Z,100942.56
2023-01-03T05:09:38.734Z,100942.56
2023-01-03T05:10:18.635Z,100946.22
2023-01-03T05:10:59.698Z,100946.22
2023-01-03T05:11:39.604Z,100953.75
2023-01-03T05:12:19.741Z,100927.63
2023-01-03T05:13:08.627Z,100943.25
2023-01-03T05:13:48.719Z,100953.28
2023-01-03T05:14:28.595Z,100932.78
2023-01-03T05:15:08.667Z,100943.34
2023-01-03T05:15:48.622Z,100941.44
2023-01-03T05:16:28.694Z,100943.34
2023-01-03T05:17:09.596Z,100953.28
2023-01-03T05:17:49.645Z,100940.28
2023-01-03T05:18:29.603Z,100938.38
2023-01-03T05:19:09.759Z,100941.16
2023-01-03T05:20:08.584Z,100935.56
2023-01-03T05:21:07.136Z,100936.63
2023-01-03T05:22:06.605Z,100918.03
2023-01-03T05:23:05.226Z,100939.97
2023-01-03T05:24:04.644Z,100948.25
2023-01-03T05:25:03.136Z,100947.50
2023-01-03T05:25:59.580Z,100942.25
2023-01-03T05:26:39.643Z,100948.94
2023-01-03T05:27:19.574Z,100937.19
2023-01-03T05:27:59.656Z,100954.31
2023-01-03T05:28:40.592Z,100950.75
2023-01-03T05:29:24.601Z,100957.38
2023-01-03T05:29:59.637Z,100928.47
2023-01-03T05:30:46.589Z,100966.81
2023-01-03T05:31:20.788Z,100947.81
2023-01-03T05:32:07.636Z,100931.09
2023-01-03T05:32:41.625Z,100928.63
2023-01-03T05:33:28.572Z,100964.41
2023-01-03T05:34:02.656Z,100958.41
2023-01-03T05:34:49.616Z,100969.63
2023-01-03T05:35:23.645Z,100957.22
2023-01-03T05:36:11.583Z,100940.94
2023-01-03T05:36:45.639Z,100932.19
2023-01-03T05:37:32.570Z,100957.13
2023-01-03T05:38:06.927Z,100961.66
2023-01-03T05:38:53.558Z,100947.81
2023-01-03T05:39:27.627Z,100977.59
2023-01-03T05:40:15.590Z,100942.66
2023-01-03T05:40:50.653Z,100949.00
2023-01-03T05:41:56.574Z,100961.50
2023-01-03T05:42:30.702Z,100980.13
2023-01-03T05:43:17.585Z,100950.16
2023-01-03T05:43:51.642Z,100969.56
2023-01-03T05:44:40.576Z,100924.25
2023-01-03T05:45:22.584Z,100960.72
2023-01-03T05:46:16.631Z,100955.91
2023-01-03T05:47:12.579Z,100957.53
2023-01-03T05:48:06.587Z,100947.88
2023-01-03T05:49:00.563Z,100980.91
2023-01-03T05:49:54.567Z,100960.53
2023-01-03T05:50:42.588Z,100972.41
2023-01-03T05:51:16.615Z,100969.25
2023-01-03T05:52:03.555Z,100978.44
2023-01-03T05:52:37.729Z,100974.91
2023-01-03T05:53:24.543Z,100976.63
2023-01-03T05:54:05.617Z,100962.25
2023-01-03T05:54:45.561Z,100990.00
2023-01-03T05:55:25.631Z,100969.47
2023-01-03T05:56:12.581Z,100986.75
2023-01-03T05:56:53.664Z,100962.81
2023-01-03T05:57:35.566Z,100983.09
2023-01-03T05:58:18.628Z,100992.44
2023-01-03T05:58:59.543Z,100967.59
2023-01-03T05:59:39.609Z,100971.81
2023-01-03T06:00:21.563Z,100975.81
2023-01-03T06:01:01.609Z,100977.09
2023-01-03T06:01:42.645Z,100977.50
2023-01-03T06:02:22.702Z,100993.03
2023-01-03T06:03:02.593Z,100996.50
2023-01-03T06:03:43.751Z,101010.53
2023-01-03T06:04:23.631Z,100991.31
2023-01-03T06:05:03.607Z,100998.69
2023-01-03T06:05:49.886Z,100997.06
2023-01-03T06:06:30.613Z,100996.53
2023-01-03T06:07:10.588Z,101007.69
2023-01-03T06:07:50.619Z,101005.38
2023-01-03T06:08:30.537Z,100988.44
2023-01-03T06:09:10.625Z,101015.25
2023-01-03T06:09:50.534Z,101014.38
2023-01-03T06:10:30.647Z,101016.31
2023-01-03T06:11:13.535Z,101021.72
2023-01-03T06:11:53.598Z,100994.69
2023-01-03T06:12:34.593Z,101001.84
2023-01-03T06:13:15.632Z,101011.88
2023-01-03T06:13:55.551Z,101008.03
2023-01-03T06:14:35.650Z,100996.50
2023-01-03T06:15:16.546Z,100981.50
2023-01-03T06:16:21.428Z,101000.34
2023-01-03T06:17:23.587Z,101008.44
2023-01-03T06:18:06.539Z,100983.44
2023-01-03T06:18:43.584Z,101002.47
2023-01-03T06:19:17.259Z,101024.88
2023-01-03T06:19:57.547Z,101028.41
2023-01-03T06:20:33.629Z,101019.56
2023-01-03T06:21:07.237Z,101024.16
2023-01-03T06:21:47.560Z,101029.38
2023-01-03T06:22:21.592Z,101016.09
2023-01-03T06:22:55.692Z,101013.78
2023-01-03T06:23:35.643Z,100992.88
2023-01-03T06:24:09.600Z,101007.88
2023-01-03T06:24:43.220Z,101017.25
2023-01-03T06:25:23.522Z,101028.19
2023-01-03T06:25:57.573Z,101012.66
2023-01-03T06:26:31.254Z,101030.44
2023-01-03T06:27:12.531Z,101029.72
2023-01-03T06:27:46.779Z,101023.22
2023-01-03T06:28:20.867Z,101021.72
2023-01-03T06:29:00.557Z,101030.25
2023-01-03T06:29:34.592Z,101020.69
2023-01-03T06:30:09.551Z,101018.03
2023-01-03T06:30:49.551Z,101024.28
2023-01-03T06:31:24.729Z,101052.09
2023-01-03T06:32:02.277Z,101044.03
2023-01-03T06:32:45.533Z,101041.16
2023-01-03T06:33:25.591Z,101038.44
2023-01-03T06:34:05.554Z,101026.34
2023-01-03T06:34:45.702Z,101030.66
2023-01-03T06:35:25.516Z,101056.78
2023-01-03T06:36:13.580Z,101049.09
2023-01-03T06:36:53.516Z,101030.47
2023-01-03T06:37:33.595Z,101048.63
2023-01-03T06:38:13.500Z,101046.47
2023-01-03T06:38:54.611Z,101027.09
2023-01-03T06:39:34.541Z,101029.09
2023-01-03T06:40:15.605Z,101042.44
2023-01-03T06:40:56.521Z,101046.13
2023-01-03T06:41:37.580Z,101049.19
2023-01-03T06:42:36.517Z,101052.38
2023-01-03T06:43:16.564Z,101053.41
2023-01-03T06:43:56.497Z,101027.69
2023-01-03T06:44:43.522Z,101035.94
2023-01-03T06:45:35.725Z,101028.81
2023-01-03T06:46:43.569Z,101051.28
2023-01-03T06:47:35.830Z,101071.50
2023-01-03T06:48:41.507Z,101046.88
2023-01-03T06:49:36.016Z,101068.03
2023-01-03T06:50:34.517Z,101050.53
2023-01-03T06:51:27.014Z,101069.56
2023-01-03T06:52:21.495Z,101064.97
2023-01-03T06:53:20.513Z,101044.41
2023-01-03T06:53:55.558Z,101059.81
2023-01-03T06:54:30.399Z,101061.78
2023-01-03T06:55:11.492Z,101062.47
2023-01-03T06:55:57.108Z,101067.28
2023-01-03T06:56:31.249Z,101067.66
2023-01-03T06:57:26.329Z,101067.16
2023-01-03T06:58:01.207Z,101072.19
2023-01-03T06:58:49.548Z,101068.81
2023-01-03T06:59:24.204Z,101091.50
2023-01-03T07:00:12.501Z,101081.13
2023-01-03T07:00:46.583Z,101082.75
2023-01-03T07:01:28.627Z,101083.47
2023-01-03T07:02:02.729Z,101080.19
2023-01-03T07:02:36.233Z,101090.75
2023-01-03T07:03:17.495Z,101096.13
2023-01-03T07:03:51.586Z,101072.81
2023-01-03T07:04:26.184Z,101084.50
2023-01-03T07:05:07.466Z,101084.72
2023-01-03T07:05:41.561Z,101071.16
2023-01-03T07:06:15.193Z,101085.19
2023-01-03T07:06:55.512Z,101100.00
2023-01-03T07:07:29.552Z,101089.59
2023-01-03T07:08:03.201Z,101088.94
2023-01-03T07:08:48.142Z,101096.53
2023-01-03T07:09:22.671Z,101091.34
2023-01-03T07:09:57.164Z,101104.03
2023-01-03T07:10:37.473Z,101089.13
2023-01-03T07:11:11.532Z,101082.41
2023-01-03T07:11:45.410Z,101100.94
2023-01-03T07:12:45.546Z,101103.34
2023-01-03T07:13:38.124Z,101109.03
2023-01-03T07:14:12.548Z,101105.75
2023-01-03T07:14:53.475Z,101077.31
2023-01-03T07:15:27.593Z,101117.59
2023-01-03T07:16:01.239Z,101137.00
2023-01-03T07:16:51.484Z,101122.41
2023-01-03T07:17:25.526Z,101098.63
2023-01-03T07:18:05.481Z,101096.72
2023-01-03T07:18:52.642Z,101126.63
2023-01-03T07:19:35.513Z,101138.44
2023-01-03T07:20:15.553Z,101136.13
2023-01-03T07:20:55.471Z,101123.63
2023-01-03T07:21:37.609Z,101115.63
2023-01-03T07:22:17.481Z,101138.63
2023-01-03T07:22:59.538Z,101121.91
2023-01-03T07:23:39.503Z,101120.03
2023-01-03T07:24:22.524Z,101123.63
2023-01-03T07:25:02.491Z,101127.47
2023-01-03T07:25:43.603Z,101132.69
2023-01-03T07:26:23.466Z,101117.66
2023-01-03T07:27:03.542Z,101131.59
2023-01-03T07:27:43.470Z,101141.13
2023-01-03T07:28:23.531Z,101139.41
2023-01-03T07:29:08.528Z,101114.94
2023-01-03T07:29:48.524Z,101140.81
2023-01-03T07:30:29.466Z,101149.75
2023-01-03T07:31:12.598Z,101151.03
2023-01-03T07:31:52.592Z,101142.00
2023-01-03T07:32:32.570Z,101131.97
2023-01-03T07:33:13.458Z,101141.69
2023-01-03T07:33:54.535Z,101155.13
2023-01-03T07:34:34.488Z,101152.28
2023-01-03T07:35:15.529Z,101149.59
2023-01-03T07:35:55.456Z,101152.81
2023-01-03T07:36:35.544Z,101159.66
2023-01-03T07:37:15.452Z,101138.59
2023-01-03T07:37:55.538Z,101130.53
2023-01-03T07:38:35.480Z,101136.19
2023-01-03T07:39:15.531Z,101149.00
2023-01-03T07:39:55.482Z,101152.66
2023-01-03T07:40:36.519Z,101163.03
2023-01-03T07:41:17.477Z,101151.28
2023-01-03T07:42:16.012Z,101148.63
2023-01-03T07:43:15.450Z,101154.38
2023-01-03T07:43:56.517Z,101129.19
2023-01-03T07:44:36.467Z,101139.69
2023-01-03T07:45:17.511Z,101156.78
2023-01-03T07:45:52.562Z,101157.16
2023-01-03T07:46:28.117Z,101174.53
2023-01-03T07:47:08.447Z,101150.66
2023-01-03T07:47:42.511Z,101153.81
2023-01-03T07:48:16.175Z,101160.38
2023-01-03T07:49:07.961Z,101166.63
2023-01-03T07:49:44.490Z,101161.69
2023-01-03T07:50:24.444Z,101167.22
2023-01-03T07:51:05.561Z,101167.06
2023-01-03T07:51:45.452Z,101176.28
2023-01-03T07:52:25.560Z,101155.03
2023-01-03T07:53:05.465Z,101163.66
2023-01-03T07:53:46.516Z,101160.63
2023-01-03T07:54:26.443Z,101171.78
2023-01-03T07:55:06.586Z,101173.75
2023-01-03T07:55:46.481Z,101168.44
2023-01-03T07:56:28.528Z,101171.44
2023-01-03T07:57:08.448Z,101181.53
2023-01-03T07:57:48.515Z,101165.66
2023-01-03T07:58:28.445Z,101154.78
2023-01-03T07:59:08.513Z,101179.31
2023-01-03T07:59:48.446Z,101169.91
2023-01-03T08:00:29.491Z,101166.97
2023-01-03T08:01:20.528Z,101177.19
2023-01-03T08:02:00.566Z,101172.38
2023-01-03T08:02:42.604Z,101161.78
2023-01-03T08:03:23.475Z,101173.88
2023-01-03T08:04:03.435Z,101171.31
2023-01-03T08:04:43.598Z,101162.47
2023-01-03T08:05:23.489Z,101160.81
2023-01-03T08:06:08.665Z,101182.91
2023-01-03T08:06:48.435Z,101195.09
2023-01-03T08:07:28.489Z,101169.97
2023-01-03T08:08:11.438Z,101178.88
2023-01-03T08:09:11.138Z,101166.50
2023-01-03T08:10:10.443Z,101183.84
2023-01-03T08:11:09.012Z,101189.22
2023-01-03T08:12:08.451Z,101168.41
2023-01-03T08:13:07.946Z,101172.28
2023-01-03T08:13:55.415Z,101187.44
2023-01-03T08:14:29.474Z,101192.66
2023-01-03T08:15:16.418Z,101180.69
2023-01-03T08:16:04.504Z,101161.19
2023-01-03T08:16:51.413Z,101178.78
2023-01-03T08:17:32.487Z,101176.19
2023-01-03T08:18:27.458Z,101175.13
2023-01-03T08:19:21.423Z,101168.72
2023-01-03T08:20:15.435Z,101183.28
2023-01-03T08:21:09.411Z,101185.72
2023-01-03T08:22:03.428Z,101176.19
2023-01-03T08:22:50.415Z,101192.47
2023-01-03T08:23:24.470Z,101201.16
2023-01-03T08:24:11.417Z,101195.78
2023-01-03T08:24:45.474Z,101196.13
2023-01-03T08:25:32.413Z,101205.00
2023-01-03T08:26:12.485Z,101201.34
2023-01-03T08:26:59.414Z,101175.19
2023-01-03T08:27:33.506Z,101199.78
2023-01-03T08:28:15.411Z,101197.28
2023-01-03T08:28:55.476Z,101199.69
2023-01-03T08:29:35.399Z,101200.91
2023-01-03T08:30:16.480Z,101181.69
2023-01-03T08:30:57.443Z,101191.63
2023-01-03T08:31:40.559Z,101199.41
2023-01-03T08:32:20.411Z,101199.06
2023-01-03T08:33:01.463Z,101198.91
2023-01-03T08:33:59.409Z,101206.13
2023-01-03T08:34:44.271Z,101190.47
2023-01-03T08:35:25.408Z,101202.41
2023-01-03T08:36:10.494Z,101190.59
2023-01-03T08:36:58.403Z,101206.75
2023-01-03T08:37:38.472Z,101177.63
2023-01-03T08:38:28.398Z,101193.91
2023-01-03T08:39:20.427Z,101194.41
2023-01-03T08:40:17.388Z,101192.69
2023-01-03T08:41:13.388Z,101209.16
2023-01-03T08:42:13.382Z,101226.31
2023-01-03T08:43:07.407Z,101192.19
2023-01-03T08:44:01.417Z,101213.94